sensor_id;sensor_type;location;lat;lon;timestamp;P1;durP1;ratioP1;P2;durP2;ratioP2
14396;SDS011;50653;47.810;13.022;2023-12-14T00:00:31;1.07;;;0.53;;
14396;SDS011;50653;47.810;13.022;2023-12-14T00:02:57;0.80;;;0.50;;
14396;SDS011;50653;47.810;13.022;2023-12-14T00:05:23;0.50;;;0.40;;
14396;SDS011;50653;47.810;13.022;2023-12-14T00:07:48;0.60;;;0.50;;
14396;SDS011;50653;47.810;13.022;2023-12-14T00:10:14;0.63;;;0.47;;
14396;SDS011;50653;47.810;13.022;2023-12-14T00:12:41;0.70;;;0.60;;
14396;SDS011;50653;47.810;13.022;2023-12-14T00:15:07;0.80;;;0.60;;
14396;SDS011;50653;47.810;13.022;2023-12-14T00:17:33;0.77;;;0.60;;
14396;SDS011;50653;47.810;13.022;2023-12-14T00:19:58;0.90;;;0.80;;
14396;SDS011;50653;47.810;13.022;2023-12-14T00:22:24;0.80;;;0.60;;
14396;SDS011;50653;47.810;13.022;2023-12-14T00:24:50;0.70;;;0.60;;
14396;SDS011;50653;47.810;13.022;2023-12-14T00:27:15;0.80;;;0.60;;
14396;SDS011;50653;47.810;13.022;2023-12-14T00:29:41;1.00;;;0.90;;
14396;SDS011;50653;47.810;13.022;2023-12-14T00:32:07;0.80;;;0.80;;
14396;SDS011;50653;47.810;13.022;2023-12-14T00:34:32;0.80;;;0.60;;
14396;SDS011;50653;47.810;13.022;2023-12-14T00:36:58;0.73;;;0.70;;
14396;SDS011;50653;47.810;13.022;2023-12-14T00:39:24;0.60;;;0.47;;
14396;SDS011;50653;47.810;13.022;2023-12-14T00:41:49;0.70;;;0.60;;
14396;SDS011;50653;47.810;13.022;2023-12-14T00:44:15;0.70;;;0.63;;
14396;SDS011;50653;47.810;13.022;2023-12-14T00:46:41;0.73;;;0.60;;
14396;SDS011;50653;47.810;13.022;2023-12-14T00:49:07;0.67;;;0.50;;
14396;SDS011;50653;47.810;13.022;2023-12-14T00:51:32;1.27;;;0.90;;
14396;SDS011;50653;47.810;13.022;2023-12-14T00:53:58;0.70;;;0.57;;
14396;SDS011;50653;47.810;13.022;2023-12-14T00:56:24;0.90;;;0.50;;
14396;SDS011;50653;47.810;13.022;2023-12-14T00:58:49;0.97;;;0.90;;
14396;SDS011;50653;47.810;13.022;2023-12-14T01:01:15;0.60;;;0.50;;
14396;SDS011;50653;47.810;13.022;2023-12-14T01:03:41;0.80;;;0.60;;
14396;SDS011;50653;47.810;13.022;2023-12-14T01:06:06;0.90;;;0.60;;
14396;SDS011;50653;47.810;13.022;2023-12-14T01:08:32;0.60;;;0.60;;
14396;SDS011;50653;47.810;13.022;2023-12-14T01:10:58;0.60;;;0.50;;
14396;SDS011;50653;47.810;13.022;2023-12-14T01:13:23;0.60;;;0.50;;
14396;SDS011;50653;47.810;13.022;2023-12-14T01:15:49;0.97;;;0.70;;
14396;SDS011;50653;47.810;13.022;2023-12-14T01:18:15;0.70;;;0.53;;
14396;SDS011;50653;47.810;13.022;2023-12-14T01:20:42;0.80;;;0.70;;
14396;SDS011;50653;47.810;13.022;2023-12-14T01:23:08;0.80;;;0.80;;
14396;SDS011;50653;47.810;13.022;2023-12-14T01:25:34;0.70;;;0.70;;
14396;SDS011;50653;47.810;13.022;2023-12-14T01:28:01;1.37;;;1.00;;
14396;SDS011;50653;47.810;13.022;2023-12-14T01:30:27;0.90;;;0.80;;
14396;SDS011;50653;47.810;13.022;2023-12-14T01:32:52;0.70;;;0.70;;
14396;SDS011;50653;47.810;13.022;2023-12-14T01:35:18;0.60;;;0.50;;
14396;SDS011;50653;47.810;13.022;2023-12-14T01:37:44;0.93;;;0.87;;
14396;SDS011;50653;47.810;13.022;2023-12-14T01:40:09;1.10;;;0.90;;
14396;SDS011;50653;47.810;13.022;2023-12-14T01:42:35;0.97;;;0.80;;
14396;SDS011;50653;47.810;13.022;2023-12-14T01:45:01;0.70;;;0.60;;
14396;SDS011;50653;47.810;13.022;2023-12-14T01:47:27;0.90;;;0.67;;
14396;SDS011;50653;47.810;13.022;2023-12-14T01:49:52;0.80;;;0.80;;
14396;SDS011;50653;47.810;13.022;2023-12-14T01:52:18;0.90;;;0.80;;
14396;SDS011;50653;47.810;13.022;2023-12-14T01:54:44;1.63;;;0.87;;
14396;SDS011;50653;47.810;13.022;2023-12-14T01:57:09;1.00;;;0.90;;
14396;SDS011;50653;47.810;13.022;2023-12-14T01:59:35;0.60;;;0.60;;
14396;SDS011;50653;47.810;13.022;2023-12-14T02:02:01;0.80;;;0.80;;
14396;SDS011;50653;47.810;13.022;2023-12-14T02:04:28;0.90;;;0.73;;
14396;SDS011;50653;47.810;13.022;2023-12-14T02:06:53;0.80;;;0.70;;
14396;SDS011;50653;47.810;13.022;2023-12-14T02:09:19;0.80;;;0.70;;
14396;SDS011;50653;47.810;13.022;2023-12-14T02:11:45;0.83;;;0.60;;
14396;SDS011;50653;47.810;13.022;2023-12-14T02:14:11;0.60;;;0.50;;
14396;SDS011;50653;47.810;13.022;2023-12-14T02:16:37;0.50;;;0.40;;
14396;SDS011;50653;47.810;13.022;2023-12-14T02:19:06;0.73;;;0.60;;
14396;SDS011;50653;47.810;13.022;2023-12-14T02:21:31;0.77;;;0.70;;
14396;SDS011;50653;47.810;13.022;2023-12-14T02:23:57;0.90;;;0.80;;
14396;SDS011;50653;47.810;13.022;2023-12-14T02:26:23;0.57;;;0.50;;
14396;SDS011;50653;47.810;13.022;2023-12-14T02:28:48;0.63;;;0.60;;
14396;SDS011;50653;47.810;13.022;2023-12-14T02:31:14;0.63;;;0.60;;
14396;SDS011;50653;47.810;13.022;2023-12-14T02:33:40;0.70;;;0.57;;
14396;SDS011;50653;47.810;13.022;2023-12-14T02:36:06;0.70;;;0.40;;
14396;SDS011;50653;47.810;13.022;2023-12-14T02:38:32;0.80;;;0.73;;
14396;SDS011;50653;47.810;13.022;2023-12-14T02:40:58;0.70;;;0.53;;
14396;SDS011;50653;47.810;13.022;2023-12-14T02:43:24;0.60;;;0.50;;
14396;SDS011;50653;47.810;13.022;2023-12-14T02:45:49;0.63;;;0.57;;
14396;SDS011;50653;47.810;13.022;2023-12-14T02:48:15;0.90;;;0.70;;
14396;SDS011;50653;47.810;13.022;2023-12-14T02:50:41;1.17;;;0.73;;
14396;SDS011;50653;47.810;13.022;2023-12-14T02:53:07;0.70;;;0.50;;
14396;SDS011;50653;47.810;13.022;2023-12-14T02:55:33;0.80;;;0.50;;
14396;SDS011;50653;47.810;13.022;2023-12-14T02:57:58;0.60;;;0.60;;
14396;SDS011;50653;47.810;13.022;2023-12-14T03:00:24;0.70;;;0.50;;
14396;SDS011;50653;47.810;13.022;2023-12-14T03:02:50;0.60;;;0.53;;
14396;SDS011;50653;47.810;13.022;2023-12-14T03:05:16;0.57;;;0.50;;
14396;SDS011;50653;47.810;13.022;2023-12-14T03:07:41;0.57;;;0.50;;
14396;SDS011;50653;47.810;13.022;2023-12-14T03:10:07;0.70;;;0.63;;
14396;SDS011;50653;47.810;13.022;2023-12-14T03:12:33;0.60;;;0.47;;
14396;SDS011;50653;47.810;13.022;2023-12-14T03:14:59;0.70;;;0.60;;
14396;SDS011;50653;47.810;13.022;2023-12-14T03:17:25;0.60;;;0.60;;
14396;SDS011;50653;47.810;13.022;2023-12-14T03:19:51;0.60;;;0.50;;
14396;SDS011;50653;47.810;13.022;2023-12-14T03:22:16;0.60;;;0.40;;
14396;SDS011;50653;47.810;13.022;2023-12-14T03:24:42;0.60;;;0.57;;
14396;SDS011;50653;47.810;13.022;2023-12-14T03:27:08;0.70;;;0.60;;
14396;SDS011;50653;47.810;13.022;2023-12-14T03:29:33;0.80;;;0.50;;
14396;SDS011;50653;47.810;13.022;2023-12-14T03:32:00;0.60;;;0.40;;
14396;SDS011;50653;47.810;13.022;2023-12-14T03:34:26;0.73;;;0.60;;
14396;SDS011;50653;47.810;13.022;2023-12-14T03:36:52;0.73;;;0.60;;
14396;SDS011;50653;47.810;13.022;2023-12-14T03:39:17;0.80;;;0.80;;
14396;SDS011;50653;47.810;13.022;2023-12-14T03:41:43;0.60;;;0.60;;
14396;SDS011;50653;47.810;13.022;2023-12-14T03:44:09;0.97;;;0.70;;
14396;SDS011;50653;47.810;13.022;2023-12-14T03:46:35;0.60;;;0.60;;
14396;SDS011;50653;47.810;13.022;2023-12-14T03:49:01;0.80;;;0.73;;
14396;SDS011;50653;47.810;13.022;2023-12-14T03:51:28;0.73;;;0.70;;
14396;SDS011;50653;47.810;13.022;2023-12-14T03:53:54;0.60;;;0.53;;
14396;SDS011;50653;47.810;13.022;2023-12-14T03:56:19;0.73;;;0.70;;
14396;SDS011;50653;47.810;13.022;2023-12-14T03:58:45;0.70;;;0.70;;
14396;SDS011;50653;47.810;13.022;2023-12-14T04:01:17;0.90;;;0.73;;
14396;SDS011;50653;47.810;13.022;2023-12-14T04:03:44;0.57;;;0.53;;
14396;SDS011;50653;47.810;13.022;2023-12-14T04:06:11;0.60;;;0.40;;
14396;SDS011;50653;47.810;13.022;2023-12-14T04:08:37;0.60;;;0.47;;
14396;SDS011;50653;47.810;13.022;2023-12-14T04:11:04;0.50;;;0.50;;
14396;SDS011;50653;47.810;13.022;2023-12-14T04:13:30;4.70;;;1.97;;
14396;SDS011;50653;47.810;13.022;2023-12-14T04:15:56;1.90;;;1.60;;
14396;SDS011;50653;47.810;13.022;2023-12-14T04:18:22;1.33;;;1.10;;
14396;SDS011;50653;47.810;13.022;2023-12-14T04:20:48;2.10;;;1.20;;
14396;SDS011;50653;47.810;13.022;2023-12-14T04:23:14;1.07;;;0.97;;
14396;SDS011;50653;47.810;13.022;2023-12-14T04:25:39;1.30;;;0.73;;
14396;SDS011;50653;47.810;13.022;2023-12-14T04:28:05;0.50;;;0.50;;
14396;SDS011;50653;47.810;13.022;2023-12-14T04:30:31;0.60;;;0.50;;
14396;SDS011;50653;47.810;13.022;2023-12-14T04:32:56;0.70;;;0.50;;
14396;SDS011;50653;47.810;13.022;2023-12-14T04:35:22;0.50;;;0.40;;
14396;SDS011;50653;47.810;13.022;2023-12-14T04:37:48;0.50;;;0.40;;
14396;SDS011;50653;47.810;13.022;2023-12-14T04:40:14;0.60;;;0.50;;
14396;SDS011;50653;47.810;13.022;2023-12-14T04:42:40;0.70;;;0.50;;
14396;SDS011;50653;47.810;13.022;2023-12-14T04:45:06;0.70;;;0.50;;
14396;SDS011;50653;47.810;13.022;2023-12-14T04:47:34;0.70;;;0.60;;
14396;SDS011;50653;47.810;13.022;2023-12-14T04:50:00;1.47;;;0.50;;
14396;SDS011;50653;47.810;13.022;2023-12-14T04:52:27;0.60;;;0.50;;
14396;SDS011;50653;47.810;13.022;2023-12-14T04:54:53;0.80;;;0.40;;
14396;SDS011;50653;47.810;13.022;2023-12-14T04:57:18;0.73;;;0.50;;
14396;SDS011;50653;47.810;13.022;2023-12-14T04:59:44;0.50;;;0.40;;
14396;SDS011;50653;47.810;13.022;2023-12-14T05:02:10;0.70;;;0.50;;
14396;SDS011;50653;47.810;13.022;2023-12-14T05:04:36;0.60;;;0.50;;
14396;SDS011;50653;47.810;13.022;2023-12-14T05:07:01;0.63;;;0.40;;
14396;SDS011;50653;47.810;13.022;2023-12-14T05:09:27;0.90;;;0.60;;
14396;SDS011;50653;47.810;13.022;2023-12-14T05:11:53;0.60;;;0.40;;
14396;SDS011;50653;47.810;13.022;2023-12-14T05:14:19;0.80;;;0.70;;
14396;SDS011;50653;47.810;13.022;2023-12-14T05:16:44;0.50;;;0.40;;
14396;SDS011;50653;47.810;13.022;2023-12-14T05:19:10;0.50;;;0.40;;
14396;SDS011;50653;47.810;13.022;2023-12-14T05:21:37;1.00;;;0.70;;
14396;SDS011;50653;47.810;13.022;2023-12-14T05:24:03;0.60;;;0.50;;
14396;SDS011;50653;47.810;13.022;2023-12-14T05:26:29;0.80;;;0.40;;
14396;SDS011;50653;47.810;13.022;2023-12-14T05:28:55;0.50;;;0.40;;
14396;SDS011;50653;47.810;13.022;2023-12-14T05:31:21;0.70;;;0.53;;
14396;SDS011;50653;47.810;13.022;2023-12-14T05:33:47;0.60;;;0.50;;
14396;SDS011;50653;47.810;13.022;2023-12-14T05:36:13;0.60;;;0.50;;
14396;SDS011;50653;47.810;13.022;2023-12-14T05:38:39;1.70;;;0.47;;
14396;SDS011;50653;47.810;13.022;2023-12-14T05:41:06;0.60;;;0.50;;
14396;SDS011;50653;47.810;13.022;2023-12-14T05:43:32;0.60;;;0.50;;
14396;SDS011;50653;47.810;13.022;2023-12-14T05:45:58;0.80;;;0.60;;
14396;SDS011;50653;47.810;13.022;2023-12-14T05:48:24;0.60;;;0.50;;
14396;SDS011;50653;47.810;13.022;2023-12-14T05:50:51;0.50;;;0.40;;
14396;SDS011;50653;47.810;13.022;2023-12-14T05:53:17;0.70;;;0.57;;
14396;SDS011;50653;47.810;13.022;2023-12-14T05:55:43;0.80;;;0.50;;
14396;SDS011;50653;47.810;13.022;2023-12-14T05:58:09;0.50;;;0.40;;
14396;SDS011;50653;47.810;13.022;2023-12-14T06:00:35;0.80;;;0.60;;
14396;SDS011;50653;47.810;13.022;2023-12-14T06:03:01;0.80;;;0.60;;
14396;SDS011;50653;47.810;13.022;2023-12-14T06:05:27;0.70;;;0.70;;
14396;SDS011;50653;47.810;13.022;2023-12-14T06:07:53;0.60;;;0.50;;
14396;SDS011;50653;47.810;13.022;2023-12-14T06:10:18;0.50;;;0.40;;
14396;SDS011;50653;47.810;13.022;2023-12-14T06:12:44;0.60;;;0.50;;
14396;SDS011;50653;47.810;13.022;2023-12-14T06:15:10;0.93;;;0.50;;
14396;SDS011;50653;47.810;13.022;2023-12-14T06:17:36;0.50;;;0.40;;
14396;SDS011;50653;47.810;13.022;2023-12-14T06:20:04;0.60;;;0.50;;
14396;SDS011;50653;47.810;13.022;2023-12-14T06:22:33;0.60;;;0.43;;
14396;SDS011;50653;47.810;13.022;2023-12-14T06:25:02;0.70;;;0.50;;
14396;SDS011;50653;47.810;13.022;2023-12-14T06:27:30;0.50;;;0.43;;
14396;SDS011;50653;47.810;13.022;2023-12-14T06:29:55;0.50;;;0.40;;
14396;SDS011;50653;47.810;13.022;2023-12-14T06:32:21;0.80;;;0.70;;
14396;SDS011;50653;47.810;13.022;2023-12-14T06:34:47;0.60;;;0.50;;
14396;SDS011;50653;47.810;13.022;2023-12-14T06:37:13;0.50;;;0.40;;
14396;SDS011;50653;47.810;13.022;2023-12-14T06:39:40;0.50;;;0.40;;
14396;SDS011;50653;47.810;13.022;2023-12-14T06:42:06;0.53;;;0.50;;
14396;SDS011;50653;47.810;13.022;2023-12-14T06:44:32;0.60;;;0.43;;
14396;SDS011;50653;47.810;13.022;2023-12-14T06:46:58;0.50;;;0.40;;
14396;SDS011;50653;47.810;13.022;2023-12-14T06:49:24;0.60;;;0.47;;
14396;SDS011;50653;47.810;13.022;2023-12-14T06:51:50;0.63;;;0.50;;
14396;SDS011;50653;47.810;13.022;2023-12-14T06:54:16;0.53;;;0.47;;
14396;SDS011;50653;47.810;13.022;2023-12-14T06:56:43;0.63;;;0.47;;
14396;SDS011;50653;47.810;13.022;2023-12-14T06:59:08;0.50;;;0.40;;
14396;SDS011;50653;47.810;13.022;2023-12-14T07:01:34;0.70;;;0.50;;
14396;SDS011;50653;47.810;13.022;2023-12-14T07:04:00;0.50;;;0.40;;
14396;SDS011;50653;47.810;13.022;2023-12-14T07:06:25;0.60;;;0.40;;
14396;SDS011;50653;47.810;13.022;2023-12-14T07:08:51;0.50;;;0.40;;
14396;SDS011;50653;47.810;13.022;2023-12-14T07:11:17;0.50;;;0.40;;
14396;SDS011;50653;47.810;13.022;2023-12-14T07:13:42;0.50;;;0.40;;
14396;SDS011;50653;47.810;13.022;2023-12-14T07:16:09;0.80;;;0.50;;
14396;SDS011;50653;47.810;13.022;2023-12-14T07:18:36;0.50;;;0.40;;
14396;SDS011;50653;47.810;13.022;2023-12-14T07:21:03;0.50;;;0.40;;
14396;SDS011;50653;47.810;13.022;2023-12-14T07:23:29;0.70;;;0.50;;
14396;SDS011;50653;47.810;13.022;2023-12-14T07:25:55;0.60;;;0.40;;
14396;SDS011;50653;47.810;13.022;2023-12-14T07:28:21;0.50;;;0.40;;
14396;SDS011;50653;47.810;13.022;2023-12-14T07:30:47;0.47;;;0.30;;
14396;SDS011;50653;47.810;13.022;2023-12-14T07:33:13;0.50;;;0.40;;
14396;SDS011;50653;47.810;13.022;2023-12-14T07:35:40;0.57;;;0.40;;
14396;SDS011;50653;47.810;13.022;2023-12-14T07:38:05;0.60;;;0.50;;
14396;SDS011;50653;47.810;13.022;2023-12-14T07:40:31;0.50;;;0.40;;
14396;SDS011;50653;47.810;13.022;2023-12-14T07:42:57;0.50;;;0.40;;
14396;SDS011;50653;47.810;13.022;2023-12-14T07:45:23;0.70;;;0.60;;
14396;SDS011;50653;47.810;13.022;2023-12-14T07:47:48;0.57;;;0.50;;
14396;SDS011;50653;47.810;13.022;2023-12-14T07:50:14;0.50;;;0.40;;
14396;SDS011;50653;47.810;13.022;2023-12-14T07:52:40;0.60;;;0.40;;
14396;SDS011;50653;47.810;13.022;2023-12-14T07:55:06;0.77;;;0.57;;
14396;SDS011;50653;47.810;13.022;2023-12-14T07:57:32;0.93;;;0.60;;
14396;SDS011;50653;47.810;13.022;2023-12-14T07:59:58;0.60;;;0.47;;
14396;SDS011;50653;47.810;13.022;2023-12-14T08:02:24;0.60;;;0.47;;
14396;SDS011;50653;47.810;13.022;2023-12-14T08:04:50;0.60;;;0.40;;
14396;SDS011;50653;47.810;13.022;2023-12-14T08:07:15;0.50;;;0.40;;
14396;SDS011;50653;47.810;13.022;2023-12-14T08:09:41;0.60;;;0.50;;
14396;SDS011;50653;47.810;13.022;2023-12-14T08:12:07;0.50;;;0.37;;
14396;SDS011;50653;47.810;13.022;2023-12-14T08:14:33;0.50;;;0.40;;
14396;SDS011;50653;47.810;13.022;2023-12-14T08:16:59;1.10;;;0.40;;
14396;SDS011;50653;47.810;13.022;2023-12-14T08:19:28;0.50;;;0.40;;
14396;SDS011;50653;47.810;13.022;2023-12-14T08:21:55;0.60;;;0.50;;
14396;SDS011;50653;47.810;13.022;2023-12-14T08:24:20;0.50;;;0.40;;
14396;SDS011;50653;47.810;13.022;2023-12-14T08:26:46;0.50;;;0.40;;
14396;SDS011;50653;47.810;13.022;2023-12-14T08:29:12;0.50;;;0.40;;
14396;SDS011;50653;47.810;13.022;2023-12-14T08:31:38;0.50;;;0.40;;
14396;SDS011;50653;47.810;13.022;2023-12-14T08:34:03;0.50;;;0.40;;
14396;SDS011;50653;47.810;13.022;2023-12-14T08:36:29;0.70;;;0.40;;
14396;SDS011;50653;47.810;13.022;2023-12-14T08:38:56;0.50;;;0.40;;
14396;SDS011;50653;47.810;13.022;2023-12-14T08:41:22;0.50;;;0.40;;
14396;SDS011;50653;47.810;13.022;2023-12-14T08:43:48;0.60;;;0.43;;
14396;SDS011;50653;47.810;13.022;2023-12-14T08:46:13;0.60;;;0.40;;
14396;SDS011;50653;47.810;13.022;2023-12-14T08:48:39;0.53;;;0.30;;
14396;SDS011;50653;47.810;13.022;2023-12-14T08:51:05;0.70;;;0.40;;
14396;SDS011;50653;47.810;13.022;2023-12-14T08:53:31;0.60;;;0.40;;
14396;SDS011;50653;47.810;13.022;2023-12-14T08:55:57;0.50;;;0.40;;
14396;SDS011;50653;47.810;13.022;2023-12-14T08:58:23;0.80;;;0.40;;
14396;SDS011;50653;47.810;13.022;2023-12-14T09:00:48;0.50;;;0.40;;
14396;SDS011;50653;47.810;13.022;2023-12-14T09:03:20;9.73;;;0.50;;
14396;SDS011;50653;47.810;13.022;2023-12-14T09:05:47;0.53;;;0.40;;
14396;SDS011;50653;47.810;13.022;2023-12-14T09:08:12;0.87;;;0.40;;
14396;SDS011;50653;47.810;13.022;2023-12-14T09:10:38;0.63;;;0.50;;
14396;SDS011;50653;47.810;13.022;2023-12-14T09:13:04;0.87;;;0.50;;
14396;SDS011;50653;47.810;13.022;2023-12-14T09:15:33;0.60;;;0.50;;
14396;SDS011;50653;47.810;13.022;2023-12-14T09:17:59;0.70;;;0.50;;
14396;SDS011;50653;47.810;13.022;2023-12-14T09:20:25;0.50;;;0.43;;
14396;SDS011;50653;47.810;13.022;2023-12-14T09:22:51;0.50;;;0.40;;
14396;SDS011;50653;47.810;13.022;2023-12-14T09:25:19;0.60;;;0.40;;
14396;SDS011;50653;47.810;13.022;2023-12-14T09:27:45;0.60;;;0.40;;
14396;SDS011;50653;47.810;13.022;2023-12-14T09:30:11;0.50;;;0.40;;
14396;SDS011;50653;47.810;13.022;2023-12-14T09:32:37;0.60;;;0.50;;
14396;SDS011;50653;47.810;13.022;2023-12-14T09:35:05;0.50;;;0.40;;
14396;SDS011;50653;47.810;13.022;2023-12-14T09:37:31;0.60;;;0.50;;
14396;SDS011;50653;47.810;13.022;2023-12-14T09:39:57;0.90;;;0.50;;
14396;SDS011;50653;47.810;13.022;2023-12-14T09:42:23;0.73;;;0.60;;
14396;SDS011;50653;47.810;13.022;2023-12-14T09:44:49;0.80;;;0.53;;
14396;SDS011;50653;47.810;13.022;2023-12-14T09:47:16;0.80;;;0.60;;
14396;SDS011;50653;47.810;13.022;2023-12-14T09:49:42;0.80;;;0.73;;
14396;SDS011;50653;47.810;13.022;2023-12-14T09:52:09;0.77;;;0.70;;
14396;SDS011;50653;47.810;13.022;2023-12-14T09:54:35;0.80;;;0.73;;
14396;SDS011;50653;47.810;13.022;2023-12-14T09:57:01;0.80;;;0.80;;
14396;SDS011;50653;47.810;13.022;2023-12-14T09:59:26;0.90;;;0.80;;
14396;SDS011;50653;47.810;13.022;2023-12-14T10:01:52;1.00;;;0.80;;
14396;SDS011;50653;47.810;13.022;2023-12-14T10:04:18;0.80;;;0.60;;
14396;SDS011;50653;47.810;13.022;2023-12-14T10:06:46;1.77;;;1.00;;
14396;SDS011;50653;47.810;13.022;2023-12-14T10:09:12;0.90;;;0.63;;
14396;SDS011;50653;47.810;13.022;2023-12-14T10:11:40;0.90;;;0.70;;
14396;SDS011;50653;47.810;13.022;2023-12-14T10:14:20;1.03;;;0.70;;
14396;SDS011;50653;47.810;13.022;2023-12-14T10:16:48;0.70;;;0.57;;
14396;SDS011;50653;47.810;13.022;2023-12-14T10:19:15;1.10;;;0.70;;
14396;SDS011;50653;47.810;13.022;2023-12-14T10:21:42;1.10;;;0.97;;
14396;SDS011;50653;47.810;13.022;2023-12-14T10:24:08;0.80;;;0.60;;
14396;SDS011;50653;47.810;13.022;2023-12-14T10:26:34;0.97;;;0.80;;
14396;SDS011;50653;47.810;13.022;2023-12-14T10:29:01;0.97;;;0.93;;
14396;SDS011;50653;47.810;13.022;2023-12-14T10:31:30;2.40;;;0.80;;
14396;SDS011;50653;47.810;13.022;2023-12-14T10:33:56;1.17;;;1.07;;
14396;SDS011;50653;47.810;13.022;2023-12-14T10:36:22;1.00;;;0.90;;
14396;SDS011;50653;47.810;13.022;2023-12-14T10:38:54;0.60;;;0.60;;
14396;SDS011;50653;47.810;13.022;2023-12-14T10:41:23;0.70;;;0.60;;
14396;SDS011;50653;47.810;13.022;2023-12-14T10:43:58;0.70;;;0.63;;
14396;SDS011;50653;47.810;13.022;2023-12-14T10:46:26;0.60;;;0.50;;
14396;SDS011;50653;47.810;13.022;2023-12-14T10:48:53;0.60;;;0.50;;
14396;SDS011;50653;47.810;13.022;2023-12-14T10:51:20;0.70;;;0.60;;
14396;SDS011;50653;47.810;13.022;2023-12-14T10:53:48;0.60;;;0.53;;
14396;SDS011;50653;47.810;13.022;2023-12-14T10:56:17;0.60;;;0.40;;
14396;SDS011;50653;47.810;13.022;2023-12-14T10:58:50;0.67;;;0.60;;
14396;SDS011;50653;47.810;13.022;2023-12-14T11:01:23;0.70;;;0.70;;
14396;SDS011;50653;47.810;13.022;2023-12-14T11:03:50;0.93;;;0.70;;
14396;SDS011;50653;47.810;13.022;2023-12-14T11:06:32;0.70;;;0.60;;
14396;SDS011;50653;47.810;13.022;2023-12-14T11:09:06;0.87;;;0.80;;
14396;SDS011;50653;47.810;13.022;2023-12-14T11:14:18;1.30;;;0.87;;
14396;SDS011;50653;47.810;13.022;2023-12-14T11:16:44;0.70;;;0.60;;
14396;SDS011;50653;47.810;13.022;2023-12-14T11:24:20;0.60;;;0.40;;
14396;SDS011;50653;47.810;13.022;2023-12-14T11:26:48;0.83;;;0.83;;
14396;SDS011;50653;47.810;13.022;2023-12-14T11:29:18;1.10;;;0.73;;
14396;SDS011;50653;47.810;13.022;2023-12-14T11:31:45;0.70;;;0.60;;
14396;SDS011;50653;47.810;13.022;2023-12-14T11:34:11;0.70;;;0.67;;
14396;SDS011;50653;47.810;13.022;2023-12-14T11:36:37;1.00;;;0.73;;
14396;SDS011;50653;47.810;13.022;2023-12-14T11:39:09;0.60;;;0.50;;
14396;SDS011;50653;47.810;13.022;2023-12-14T11:41:36;0.80;;;0.67;;
14396;SDS011;50653;47.810;13.022;2023-12-14T11:44:03;0.70;;;0.70;;
14396;SDS011;50653;47.810;13.022;2023-12-14T11:46:30;0.70;;;0.60;;
14396;SDS011;50653;47.810;13.022;2023-12-14T11:48:56;0.70;;;0.60;;
14396;SDS011;50653;47.810;13.022;2023-12-14T11:51:23;4.63;;;0.83;;
14396;SDS011;50653;47.810;13.022;2023-12-14T11:53:51;0.70;;;0.60;;
14396;SDS011;50653;47.810;13.022;2023-12-14T11:56:17;0.70;;;0.60;;
14396;SDS011;50653;47.810;13.022;2023-12-14T11:58:44;0.80;;;0.67;;
14396;SDS011;50653;47.810;13.022;2023-12-14T12:01:17;0.97;;;0.97;;
14396;SDS011;50653;47.810;13.022;2023-12-14T12:03:44;0.80;;;0.60;;
14396;SDS011;50653;47.810;13.022;2023-12-14T12:06:23;0.70;;;0.50;;
14396;SDS011;50653;47.810;13.022;2023-12-14T12:08:51;0.90;;;0.70;;
14396;SDS011;50653;47.810;13.022;2023-12-14T12:11:17;1.97;;;0.60;;
14396;SDS011;50653;47.810;13.022;2023-12-14T12:13:47;0.60;;;0.47;;
14396;SDS011;50653;47.810;13.022;2023-12-14T12:16:16;0.67;;;0.57;;
14396;SDS011;50653;47.810;13.022;2023-12-14T12:18:41;0.67;;;0.60;;
14396;SDS011;50653;47.810;13.022;2023-12-14T12:21:07;1.23;;;0.83;;
14396;SDS011;50653;47.810;13.022;2023-12-14T12:23:34;1.37;;;0.90;;
14396;SDS011;50653;47.810;13.022;2023-12-14T12:26:00;1.00;;;0.90;;
14396;SDS011;50653;47.810;13.022;2023-12-14T12:28:26;0.80;;;0.60;;
14396;SDS011;50653;47.810;13.022;2023-12-14T12:30:52;1.53;;;1.43;;
14396;SDS011;50653;47.810;13.022;2023-12-14T12:33:18;2.40;;;1.80;;
14396;SDS011;50653;47.810;13.022;2023-12-14T12:35:44;1.20;;;1.10;;
14396;SDS011;50653;47.810;13.022;2023-12-14T12:38:09;1.90;;;1.53;;
14396;SDS011;50653;47.810;13.022;2023-12-14T12:40:35;2.30;;;2.10;;
14396;SDS011;50653;47.810;13.022;2023-12-14T12:43:01;1.67;;;1.57;;
14396;SDS011;50653;47.810;13.022;2023-12-14T12:45:27;1.60;;;1.50;;
14396;SDS011;50653;47.810;13.022;2023-12-14T12:47:53;1.73;;;1.63;;
14396;SDS011;50653;47.810;13.022;2023-12-14T12:50:19;0.93;;;0.90;;
14396;SDS011;50653;47.810;13.022;2023-12-14T12:52:45;1.13;;;0.67;;
14396;SDS011;50653;47.810;13.022;2023-12-14T12:55:13;1.20;;;1.10;;
14396;SDS011;50653;47.810;13.022;2023-12-14T12:57:40;1.13;;;0.87;;
14396;SDS011;50653;47.810;13.022;2023-12-14T13:00:07;0.83;;;0.70;;
14396;SDS011;50653;47.810;13.022;2023-12-14T13:02:41;0.70;;;0.60;;
14396;SDS011;50653;47.810;13.022;2023-12-14T13:05:08;1.00;;;0.87;;
14396;SDS011;50653;47.810;13.022;2023-12-14T13:07:37;0.80;;;0.70;;
14396;SDS011;50653;47.810;13.022;2023-12-14T13:10:04;0.50;;;0.40;;
14396;SDS011;50653;47.810;13.022;2023-12-14T13:12:34;0.80;;;0.70;;
14396;SDS011;50653;47.810;13.022;2023-12-14T13:15:00;0.70;;;0.47;;
14396;SDS011;50653;47.810;13.022;2023-12-14T13:17:26;0.70;;;0.60;;
14396;SDS011;50653;47.810;13.022;2023-12-14T13:19:52;0.60;;;0.47;;
14396;SDS011;50653;47.810;13.022;2023-12-14T13:22:18;0.80;;;0.60;;
14396;SDS011;50653;47.810;13.022;2023-12-14T13:24:44;0.60;;;0.50;;
14396;SDS011;50653;47.810;13.022;2023-12-14T13:27:11;0.60;;;0.50;;
14396;SDS011;50653;47.810;13.022;2023-12-14T13:29:37;0.50;;;0.40;;
14396;SDS011;50653;47.810;13.022;2023-12-14T13:32:03;0.70;;;0.70;;
14396;SDS011;50653;47.810;13.022;2023-12-14T13:34:29;0.90;;;0.60;;
14396;SDS011;50653;47.810;13.022;2023-12-14T13:36:55;0.80;;;0.60;;
14396;SDS011;50653;47.810;13.022;2023-12-14T13:39:21;0.70;;;0.60;;
14396;SDS011;50653;47.810;13.022;2023-12-14T13:41:47;0.67;;;0.57;;
14396;SDS011;50653;47.810;13.022;2023-12-14T13:44:13;0.83;;;0.80;;
14396;SDS011;50653;47.810;13.022;2023-12-14T13:46:39;0.70;;;0.70;;
14396;SDS011;50653;47.810;13.022;2023-12-14T13:49:04;1.00;;;0.90;;
14396;SDS011;50653;47.810;13.022;2023-12-14T13:51:30;0.80;;;0.50;;
14396;SDS011;50653;47.810;13.022;2023-12-14T13:53:56;0.60;;;0.50;;
14396;SDS011;50653;47.810;13.022;2023-12-14T13:56:21;0.90;;;0.50;;
14396;SDS011;50653;47.810;13.022;2023-12-14T13:58:47;0.80;;;0.50;;
14396;SDS011;50653;47.810;13.022;2023-12-14T14:01:13;0.70;;;0.40;;
14396;SDS011;50653;47.810;13.022;2023-12-14T14:03:40;0.50;;;0.37;;
14396;SDS011;50653;47.810;13.022;2023-12-14T14:06:06;0.70;;;0.50;;
14396;SDS011;50653;47.810;13.022;2023-12-14T14:08:32;1.13;;;0.70;;
14396;SDS011;50653;47.810;13.022;2023-12-14T14:10:59;2.60;;;0.67;;
14396;SDS011;50653;47.810;13.022;2023-12-14T14:13:25;0.83;;;0.60;;
14396;SDS011;50653;47.810;13.022;2023-12-14T14:15:51;0.80;;;0.60;;
14396;SDS011;50653;47.810;13.022;2023-12-14T14:18:17;0.80;;;0.53;;
14396;SDS011;50653;47.810;13.022;2023-12-14T14:20:43;0.73;;;0.50;;
14396;SDS011;50653;47.810;13.022;2023-12-14T14:23:09;0.80;;;0.67;;
14396;SDS011;50653;47.810;13.022;2023-12-14T14:25:34;0.53;;;0.40;;
14396;SDS011;50653;47.810;13.022;2023-12-14T14:28:00;0.80;;;0.60;;
14396;SDS011;50653;47.810;13.022;2023-12-14T14:30:26;0.70;;;0.70;;
14396;SDS011;50653;47.810;13.022;2023-12-14T14:32:52;0.70;;;0.70;;
14396;SDS011;50653;47.810;13.022;2023-12-14T14:35:18;0.70;;;0.50;;